createdAt,value
2022-08-02T00:01:37.121Z,98.00
2022-08-02T00:04:09.070Z,98.10
2022-08-02T00:06:40.882Z,98.10
2022-08-02T00:09:12.813Z,98.20
2022-08-02T00:11:44.633Z,98.40
2022-08-02T00:14:16.363Z,98.70
2022-08-02T00:16:48.317Z,98.90
2022-08-02T00:19:20.078Z,99.10
2022-08-02T00:21:51.824Z,99.30
2022-08-02T00:24:30.822Z,99.60
2022-08-02T00:27:03.900Z,99.80
2022-08-02T00:29:42.683Z,99.90
2022-08-02T00:32:26.278Z,99.90
2022-08-02T00:34:58.199Z,99.90
2022-08-02T00:37:29.940Z,99.90
2022-08-02T00:40:03.100Z,99.90
2022-08-02T00:42:34.836Z,99.90
2022-08-02T00:45:07.612Z,99.90
2022-08-02T00:47:39.343Z,99.90
2022-08-02T00:50:11.221Z,99.90
2022-08-02T00:52:42.953Z,99.90
2022-08-02T00:55:17.513Z,99.90
2022-08-02T00:57:55.574Z,99.90
2022-08-02T01:00:29.979Z,99.90
2022-08-02T01:03:01.876Z,99.90
2022-08-02T01:05:46.955Z,99.90
2022-08-02T01:08:29.642Z,99.90
2022-08-02T01:11:03.707Z,99.90
2022-08-02T01:13:35.719Z,99.90
2022-08-02T01:16:19.785Z,99.90
2022-08-02T01:18:59.792Z,99.90
2022-08-02T01:21:49.746Z,99.90
2022-08-02T01:24:35.345Z,99.90
2022-08-02T01:27:50.715Z,99.90
2022-08-02T01:30:22.727Z,99.90
2022-08-02T01:33:00.032Z,99.90
2022-08-02T01:35:47.237Z,99.90
2022-08-02T01:38:38.855Z,99.90
2022-08-02T01:41:19.489Z,99.90
2022-08-02T01:43:55.422Z,99.90
2022-08-02T01:46:28.975Z,99.90
2022-08-02T01:49:09.537Z,99.90
2022-08-02T01:52:02.059Z,99.90
2022-08-02T01:54:36.396Z,99.90
2022-08-02T01:57:11.493Z,99.90
2022-08-02T01:59:45.614Z,99.90
2022-08-02T02:02:20.605Z,99.90
2022-08-02T02:04:55.843Z,99.90
2022-08-02T02:07:30.223Z,99.90
2022-08-02T02:10:04.075Z,99.90
2022-08-02T02:12:38.258Z,99.90
2022-08-02T02:15:12.724Z,99.90
2022-08-02T02:17:52.922Z,99.90
2022-08-02T02:20:38.133Z,99.90
2022-08-02T02:23:11.384Z,99.90
2022-08-02T02:25:47.201Z,99.90
2022-08-02T02:28:30.684Z,99.90
2022-08-02T02:31:07.891Z,99.90
2022-08-02T02:33:44.761Z,99.90
2022-08-02T02:36:18.895Z,99.90
2022-08-02T02:38:52.822Z,99.90
2022-08-02T02:41:26.977Z,99.90
2022-08-02T02:44:03.776Z,99.90
2022-08-02T02:46:36.764Z,99.90
2022-08-02T02:49:12.219Z,99.90
2022-08-02T02:51:45.354Z,99.90
2022-08-02T02:54:32.532Z,99.90
2022-08-02T02:57:07.853Z,99.90
2022-08-02T02:59:49.019Z,99.90
2022-08-02T03:02:21.762Z,99.90
2022-08-02T03:04:57.734Z,99.90
2022-08-02T03:07:30.119Z,99.90
2022-08-02T03:10:04.066Z,99.90
2022-08-02T03:12:36.529Z,99.90
2022-08-02T03:15:12.835Z,99.90
2022-08-02T03:17:46.240Z,99.90
2022-08-02T03:20:20.410Z,99.90
2022-08-02T03:22:52.229Z,99.90
2022-08-02T03:25:23.992Z,99.90
2022-08-02T03:27:55.728Z,99.90
2022-08-02T03:30:27.734Z,99.90
2022-08-02T03:32:59.575Z,99.90
2022-08-02T03:35:31.552Z,99.90
2022-08-02T03:38:05.510Z,99.90
2022-08-02T03:40:38.172Z,99.90
2022-08-02T03:43:11.068Z,99.90
2022-08-02T03:45:47.702Z,99.90
2022-08-02T03:48:33.897Z,99.90
2022-08-02T03:51:08.043Z,99.90
2022-08-02T03:53:40.346Z,99.90
2022-08-02T03:56:12.827Z,99.90
2022-08-02T03:58:49.083Z,99.90
2022-08-02T04:01:21.248Z,99.90
2022-08-02T04:03:53.167Z,99.90
2022-08-02T04:06:27.250Z,99.90
2022-08-02T04:09:00.266Z,99.90
2022-08-02T04:11:32.056Z,99.90
2022-08-02T04:14:09.917Z,99.90
2022-08-02T04:16:45.596Z,99.90
2022-08-02T04:19:25.680Z,99.90
2022-08-02T04:21:59.820Z,99.90
2022-08-02T04:24:37.383Z,99.90
2022-08-02T04:27:49.218Z,99.90
2022-08-02T04:30:04.927Z,99.90
2022-08-02T04:32:37.485Z,99.90
2022-08-02T04:35:24.750Z,99.90
2022-08-02T04:38:08.232Z,99.90
2022-08-02T04:40:50.667Z,99.90
2022-08-02T04:43:23.808Z,99.90
2022-08-02T04:45:55.702Z,99.90
2022-08-02T04:48:27.456Z,99.90
2022-08-02T04:50:59.603Z,99.90
2022-08-02T04:53:31.338Z,99.90
2022-08-02T04:56:03.181Z,97.70
2022-08-02T04:58:40.506Z,94.20
2022-08-02T05:01:12.757Z,92.10
2022-08-02T05:03:44.602Z,90.80
2022-08-02T05:06:22.250Z,87.80
2022-08-02T05:08:54.026Z,86.10
2022-08-02T05:11:36.161Z,84.80
2022-08-02T05:14:08.611Z,84.70
2022-08-02T05:16:40.326Z,85.40
2022-08-02T05:19:12.106Z,85.70
2022-08-02T05:21:43.846Z,87.20
2022-08-02T05:24:15.610Z,88.70
2022-08-02T05:26:47.339Z,88.30
2022-08-02T05:29:19.137Z,90.00
2022-08-02T05:31:50.943Z,89.80
2022-08-02T05:34:22.840Z,90.50
2022-08-02T05:36:54.528Z,90.60
2022-08-02T05:39:27.210Z,90.00
2022-08-02T05:42:03.931Z,89.60
2022-08-02T05:44:35.693Z,89.80
2022-08-02T05:47:07.421Z,90.20
2022-08-02T05:49:39.248Z,90.50
2022-08-02T05:52:15.939Z,90.80
2022-08-02T05:55:10.011Z,90.90
2022-08-02T05:58:07.854Z,90.50
2022-08-02T06:00:41.908Z,90.10
2022-08-02T06:03:26.792Z,88.90
2022-08-02T06:06:16.163Z,87.60
2022-08-02T06:08:51.103Z,89.20
2022-08-02T06:11:24.794Z,89.90
2022-08-02T06:13:56.828Z,91.30
2022-08-02T06:16:31.821Z,91.10
2022-08-02T06:19:05.482Z,90.70
2022-08-02T06:22:42.030Z,90.40
2022-08-02T06:24:34.409Z,90.30
2022-08-02T06:27:06.484Z,90.30
2022-08-02T06:29:39.687Z,91.10
2022-08-02T06:32:11.750Z,90.70
2022-08-02T06:34:44.019Z,91.00
2022-08-02T06:37:27.986Z,91.00
2022-08-02T06:40:04.128Z,89.90
2022-08-02T06:42:58.158Z,90.30
2022-08-02T06:45:29.958Z,89.90
2022-08-02T06:48:02.113Z,89.80
2022-08-02T06:50:34.471Z,87.00
2022-08-02T06:53:06.808Z,87.00
2022-08-02T06:55:44.052Z,90.00
2022-08-02T06:58:16.128Z,89.20
2022-08-02T07:00:48.200Z,89.30
2022-08-02T07:03:20.299Z,89.50
2022-08-02T07:05:55.037Z,88.10
2022-08-02T07:08:31.659Z,88.90
2022-08-02T07:11:05.451Z,87.70
2022-08-02T07:13:39.905Z,86.30
2022-08-02T07:16:11.775Z,85.60
2022-08-02T07:18:43.545Z,86.70
2022-08-02T07:21:15.296Z,89.00
2022-08-02T07:23:47.822Z,89.40
2022-08-02T07:26:19.542Z,87.60
2022-08-02T07:28:51.276Z,88.50
2022-08-02T07:31:23.031Z,89.50
2022-08-02T07:33:54.768Z,90.10
2022-08-02T07:36:26.673Z,90.30
2022-08-02T07:38:58.539Z,90.00
2022-08-02T07:41:30.844Z,87.80
2022-08-02T07:44:02.602Z,89.30
2022-08-02T07:46:34.376Z,87.20
2022-08-02T07:49:06.131Z,89.50
2022-08-02T07:51:37.906Z,88.80
2022-08-02T07:54:10.244Z,86.50
2022-08-02T07:56:43.265Z,87.40
2022-08-02T07:59:14.979Z,86.70
2022-08-02T08:01:47.220Z,86.10
2022-08-02T08:04:20.009Z,87.00
2022-08-02T08:06:54.497Z,85.70
2022-08-02T08:09:26.289Z,85.20
2022-08-02T08:11:58.066Z,86.70
2022-08-02T08:14:29.843Z,85.50
2022-08-02T08:17:01.664Z,86.50
2022-08-02T08:19:50.554Z,88.60
2022-08-02T08:22:23.572Z,87.20
2022-08-02T08:24:55.324Z,85.80
2022-08-02T08:27:27.034Z,86.80
2022-08-02T08:29:58.813Z,86.80
2022-08-02T08:32:30.644Z,86.50
2022-08-02T08:35:03.995Z,85.70
2022-08-02T08:37:36.658Z,83.70
2022-08-02T08:40:10.497Z,83.90
2022-08-02T08:42:42.292Z,84.00
2022-08-02T08:45:14.040Z,82.60
2022-08-02T08:47:52.113Z,81.60
2022-08-02T08:50:26.143Z,82.00
2022-08-02T08:53:05.953Z,82.60
2022-08-02T08:55:37.869Z,81.00
2022-08-02T08:58:10.006Z,81.70
2022-08-02T09:00:41.846Z,79.40
2022-08-02T09:03:13.684Z,79.30
2022-08-02T09:05:47.031Z,79.60
2022-08-02T09:08:18.987Z,78.80
2022-08-02T09:10:51.145Z,79.50
2022-08-02T09:13:38.534Z,77.50
2022-08-02T09:16:32.460Z,79.50
2022-08-02T09:19:20.137Z,78.40
2022-08-02T09:22:00.851Z,77.20
2022-08-02T09:24:48.600Z,76.50
2022-08-02T09:27:22.728Z,76.80
2022-08-02T09:30:11.972Z,76.70
2022-08-02T09:32:46.501Z,77.10
2022-08-02T09:36:06.161Z,75.30
2022-08-02T09:38:28.300Z,74.80
2022-08-02T09:41:00.550Z,75.30
2022-08-02T09:44:03.413Z,74.20
2022-08-02T09:46:40.586Z,73.40
2022-08-02T09:49:18.461Z,72.10
2022-08-02T09:51:52.800Z,71.70
2022-08-02T09:54:28.593Z,71.70
2022-08-02T09:57:02.095Z,73.60
2022-08-02T09:59:34.107Z,75.30
2022-08-02T10:02:17.691Z,74.30
2022-08-02T10:04:53.263Z,74.00
2022-08-02T10:07:26.067Z,73.00
2022-08-02T10:09:58.204Z,71.70
2022-08-02T10:12:30.346Z,71.20
2022-08-02T10:15:02.624Z,71.00
2022-08-02T10:17:36.256Z,72.30
2022-08-02T10:20:08.600Z,72.40
2022-08-02T10:22:41.237Z,71.90
2022-08-02T10:25:13.685Z,70.20
2022-08-02T10:28:04.727Z,70.00
2022-08-02T10:30:39.741Z,68.60
2022-08-02T10:33:13.072Z,68.00
2022-08-02T10:35:47.612Z,67.50
2022-08-02T10:38:37.252Z,68.00
2022-08-02T10:41:09.069Z,69.40
2022-08-02T10:43:43.228Z,69.50
2022-08-02T10:46:22.447Z,69.10
2022-08-02T10:49:29.742Z,68.00
2022-08-02T10:52:02.662Z,67.40
2022-08-02T10:54:37.384Z,68.00
2022-08-02T10:57:18.159Z,68.50
2022-08-02T10:59:52.659Z,68.50
2022-08-02T11:02:39.487Z,68.90
2022-08-02T11:05:26.939Z,67.80
2022-08-02T11:07:58.816Z,67.70
2022-08-02T11:10:36.966Z,67.30
2022-08-02T11:13:11.830Z,67.40
2022-08-02T11:16:11.568Z,67.10
2022-08-02T11:18:52.431Z,67.10
2022-08-02T11:21:26.265Z,67.90
2022-08-02T11:24:26.745Z,68.00
2022-08-02T11:27:01.071Z,67.80
2022-08-02T11:29:38.261Z,66.20
2022-08-02T11:32:22.540Z,65.40
2022-08-02T11:35:03.925Z,66.30
2022-08-02T11:37:39.238Z,64.20
2022-08-02T11:40:19.647Z,64.10
2022-08-02T11:42:53.607Z,62.80
2022-08-02T11:49:37.426Z,62.50
2022-08-02T11:52:11.070Z,60.00
2022-08-02T11:54:43.926Z,60.50
2022-08-02T11:57:21.890Z,59.50
2022-08-02T11:59:55.809Z,59.10
2022-08-02T12:02:30.179Z,59.60
2022-08-02T12:05:05.061Z,58.70
2022-08-02T12:07:46.196Z,58.50
2022-08-02T12:10:20.838Z,57.60
2022-08-02T12:13:00.821Z,57.70
2022-08-02T12:15:37.369Z,57.60
2022-08-02T12:18:47.179Z,56.80
2022-08-02T12:21:24.754Z,56.20
2022-08-02T12:23:59.386Z,57.10
2022-08-02T12:26:45.267Z,57.70
2022-08-02T12:29:17.033Z,57.80
2022-08-02T12:32:10.238Z,58.80
2022-08-02T12:34:42.274Z,58.80
2022-08-02T12:37:14.166Z,59.50
2022-08-02T12:39:49.897Z,57.90
2022-08-02T12:42:21.655Z,58.70
2022-08-02T12:44:55.613Z,58.10
2022-08-02T12:47:35.825Z,58.60
2022-08-02T12:50:17.368Z,57.50
2022-08-02T12:52:49.591Z,56.10
2022-08-02T12:55:25.786Z,55.90
2022-08-02T12:58:17.994Z,56.10
2022-08-02T13:01:07.745Z,56.00
2022-08-02T13:04:08.959Z,55.70
2022-08-02T13:06:40.984Z,55.40
2022-08-02T13:09:17.238Z,54.50
2022-08-02T13:11:49.269Z,53.70
2022-08-02T13:14:21.062Z,52.80
2022-08-02T13:16:52.777Z,50.80
2022-08-02T13:19:24.642Z,53.20
2022-08-02T13:22:01.184Z,53.00
2022-08-02T13:24:55.836Z,53.50
2022-08-02T13:27:28.990Z,53.00
2022-08-02T13:30:01.508Z,53.40
2022-08-02T13:32:33.320Z,53.60
2022-08-02T13:35:05.415Z,53.80
2022-08-02T13:37:38.758Z,54.40
2022-08-02T13:40:21.735Z,53.70
2022-08-02T13:42:54.237Z,54.40
2022-08-02T13:45:26.693Z,54.40
2022-08-02T13:48:05.171Z,54.70
2022-08-02T13:50:48.683Z,54.10
2022-08-02T13:53:20.478Z,54.30
2022-08-02T13:55:56.289Z,54.00
2022-08-02T13:58:28.194Z,54.20
2022-08-02T14:01:00.096Z,54.70
2022-08-02T14:04:07.374Z,53.60
2022-08-02T14:07:16.452Z,54.30
2022-08-02T14:09:48.366Z,55.00
2022-08-02T14:12:20.125Z,55.40
2022-08-02T14:14:51.849Z,55.50
2022-08-02T14:17:23.570Z,55.40
2022-08-02T14:19:55.327Z,55.20
2022-08-02T14:22:28.655Z,54.50
2022-08-02T14:25:09.040Z,54.30
2022-08-02T14:27:41.269Z,52.90
2022-08-02T14:30:13.645Z,53.10
2022-08-02T14:32:45.478Z,53.20
2022-08-02T14:35:17.307Z,52.90
2022-08-02T14:37:49.057Z,53.50
2022-08-02T14:40:31.275Z,52.60
2022-08-02T14:43:04.313Z,51.00
2022-08-02T14:45:39.741Z,50.70
2022-08-02T14:48:12.944Z,50.50
2022-08-02T14:50:44.774Z,48.60
2022-08-02T14:53:16.803Z,48.20
2022-08-02T14:55:49.538Z,47.10
2022-08-02T14:58:21.274Z,47.70
2022-08-02T15:00:53.031Z,47.50
2022-08-02T15:03:25.215Z,47.60
2022-08-02T15:05:57.272Z,47.10
2022-08-02T15:08:28.990Z,47.80
2022-08-02T15:11:00.760Z,47.60
2022-08-02T15:13:32.572Z,47.70
2022-08-02T15:16:04.550Z,45.70
2022-08-02T15:18:36.467Z,46.30
2022-08-02T15:21:40.295Z,45.90
2022-08-02T15:23:59.973Z,45.40
2022-08-02T15:26:31.819Z,46.50
2022-08-02T15:29:06.351Z,47.10
2022-08-02T15:31:41.726Z,47.40
2022-08-02T15:34:13.841Z,47.50
2022-08-02T15:36:50.431Z,49.50
2022-08-02T15:39:22.167Z,50.50
2022-08-02T15:41:53.905Z,50.80
2022-08-02T15:44:25.677Z,50.90
2022-08-02T15:46:57.555Z,51.10
2022-08-02T15:49:29.415Z,51.10
2022-08-02T15:52:01.178Z,51.20
2022-08-02T15:54:33.075Z,52.10
2022-08-02T15:57:05.066Z,52.30
2022-08-02T15:59:36.875Z,51.70
2022-08-02T16:02:08.699Z,51.80
2022-08-02T16:04:40.494Z,50.80
2022-08-02T16:07:12.379Z,52.80
2022-08-02T16:09:44.366Z,52.30
2022-08-02T16:12:16.438Z,53.40
2022-08-02T16:14:52.471Z,53.50
2022-08-02T16:22:13.034Z,53.00
2022-08-02T16:24:45.092Z,53.00
2022-08-02T16:27:16.983Z,52.50
2022-08-02T16:30:14.302Z,52.60
2022-08-02T16:32:46.036Z,52.60
2022-08-02T16:35:17.893Z,52.60
2022-08-02T16:37:52.003Z,52.20
2022-08-02T16:40:24.415Z,52.50
2022-08-02T16:42:56.276Z,52.40
2022-08-02T16:45:29.698Z,52.70
2022-08-02T16:48:05.459Z,53.00
2022-08-02T16:50:37.914Z,53.10
2022-08-02T16:53:11.346Z,53.40
2022-08-02T16:55:51.527Z,53.40
2022-08-02T16:58:24.886Z,53.50
2022-08-02T17:00:56.870Z,54.50
2022-08-02T17:06:36.847Z,54.60
2022-08-02T17:09:08.576Z,54.90
2022-08-02T17:11:45.450Z,55.50
2022-08-02T17:14:20.227Z,55.70
2022-08-02T17:16:52.113Z,55.90
2022-08-02T17:19:23.839Z,56.00
2022-08-02T17:21:55.564Z,56.20
2022-08-02T17:24:29.413Z,56.40
2022-08-02T17:27:01.358Z,56.30
2022-08-02T17:29:33.227Z,56.50
2022-08-02T17:32:09.283Z,56.60
2022-08-02T17:34:56.671Z,57.00
2022-08-02T17:37:32.802Z,57.10
2022-08-02T17:40:08.054Z,56.90
2022-08-02T17:42:41.554Z,57.10
2022-08-02T17:45:24.876Z,56.80
2022-08-02T17:48:04.288Z,57.50
2022-08-02T17:50:49.506Z,58.40
2022-08-02T17:53:24.586Z,58.10
2022-08-02T17:56:08.542Z,58.10
2022-08-02T17:58:51.821Z,58.70
2022-08-02T18:01:25.711Z,59.40
2022-08-02T18:03:57.819Z,59.50
2022-08-02T18:06:29.887Z,59.80
2022-08-02T18:09:02.029Z,59.80
2022-08-02T18:11:53.056Z,60.00
2022-08-02T18:14:26.396Z,60.10
2022-08-02T18:16:58.714Z,60.70
2022-08-02T18:19:42.788Z,60.90
2022-08-02T18:22:24.843Z,61.40
2022-08-02T18:24:58.200Z,61.70
2022-08-02T18:27:29.983Z,62.20
2022-08-02T18:33:59.633Z,62.90
2022-08-02T18:35:47.289Z,63.40
2022-08-02T18:38:19.140Z,63.70
2022-08-02T18:40:52.088Z,64.30
2022-08-02T18:43:25.550Z,64.60
2022-08-02T18:46:07.378Z,64.70
2022-08-02T18:48:47.860Z,65.00
2022-08-02T18:51:20.044Z,65.70
2022-08-02T18:53:53.842Z,67.00
2022-08-02T18:56:25.776Z,66.60
2022-08-02T18:58:58.584Z,67.00
2022-08-02T19:01:33.423Z,67.00
2022-08-02T19:07:07.380Z,68.50
2022-08-02T19:09:39.997Z,69.00
2022-08-02T19:12:12.651Z,69.70
2022-08-02T19:14:44.613Z,70.00
2022-08-02T19:17:55.288Z,70.70
2022-08-02T19:20:09.223Z,71.10
2022-08-02T19:22:41.337Z,71.50
2022-08-02T19:25:14.170Z,72.10
2022-08-02T19:27:47.881Z,72.80
2022-08-02T19:30:22.160Z,73.30
2022-08-02T19:32:59.863Z,73.80
2022-08-02T19:35:34.368Z,74.60
2022-08-02T19:38:09.381Z,75.50
2022-08-02T19:40:43.987Z,75.90
2022-08-02T19:44:25.538Z,76.30
2022-08-02T19:50:01.927Z,76.90
2022-08-02T19:56:25.930Z,77.20
2022-08-02T19:58:58.008Z,77.40
2022-08-02T20:05:36.735Z,78.40
2022-08-02T20:08:08.470Z,78.80
2022-08-02T20:14:58.575Z,79.20
2022-08-02T20:17:31.574Z,79.30
2022-08-02T20:20:04.211Z,79.90
2022-08-02T20:22:54.522Z,80.60
2022-08-02T20:25:26.397Z,81.00
2022-08-02T20:28:00.851Z,81.80
2022-08-02T20:30:32.680Z,82.40
2022-08-02T20:33:21.965Z,82.80
2022-08-02T20:35:54.328Z,83.20
2022-08-02T20:38:29.845Z,83.80
2022-08-02T20:41:03.903Z,84.30
2022-08-02T20:43:35.855Z,84.70
2022-08-02T20:46:07.603Z,85.20
2022-08-02T20:48:40.315Z,85.70
2022-08-02T20:51:12.791Z,86.30
2022-08-02T20:53:56.336Z,86.70
2022-08-02T20:56:28.251Z,87.10
2022-08-02T20:59:04.138Z,87.60
2022-08-02T21:01:57.122Z,87.90
2022-08-02T21:04:29.462Z,88.90
2022-08-02T21:07:01.203Z,89.50
2022-08-02T21:09:53.948Z,89.90
2022-08-02T21:12:30.213Z,89.60
2022-08-02T21:15:02.346Z,89.90
2022-08-02T21:17:44.183Z,90.00
2022-08-02T21:20:27.460Z,90.30
2022-08-02T21:23:00.991Z,90.60
2022-08-02T21:25:42.703Z,90.90
2022-08-02T21:28:24.903Z,91.10
2022-08-02T21:31:16.046Z,91.50
2022-08-02T21:33:58.724Z,91.60
2022-08-02T21:36:33.207Z,91.90
2022-08-02T21:39:09.028Z,92.10
2022-08-02T21:41:46.867Z,92.30
2022-08-02T21:44:20.344Z,92.40
2022-08-02T21:46:54.736Z,92.80
2022-08-02T21:50:08.708Z,92.80
2022-08-02T21:52:20.342Z,92.80
2022-08-02T21:54:57.748Z,93.00
2022-08-02T21:57:34.777Z,93.00
2022-08-02T22:00:10.996Z,93.20
2022-08-02T22:02:42.823Z,93.20
2022-08-02T22:05:14.562Z,93.20
2022-08-02T22:07:46.313Z,93.20
2022-08-02T22:10:22.397Z,93.30
2022-08-02T22:12:54.137Z,93.40
2022-08-02T22:15:36.077Z,93.70
2022-08-02T22:18:14.339Z,93.80
2022-08-02T22:20:46.330Z,94.10
2022-08-02T22:23:22.635Z,94.30
2022-08-02T22:26:12.397Z,94.40
2022-08-02T22:28:51.183Z,94.50
2022-08-02T22:31:41.723Z,94.50
2022-08-02T22:34:36.678Z,94.70
2022-08-02T22:37:07.550Z,94.90
2022-08-02T22:40:05.852Z,95.20
2022-08-02T22:42:31.199Z,95.30
2022-08-02T22:45:03.084Z,95.40
2022-08-02T22:47:38.638Z,95.60
2022-08-02T22:50:11.875Z,95.80
2022-08-02T22:52:46.837Z,95.80
2022-08-02T22:55:22.920Z,95.90
2022-08-02T22:57:56.543Z,95.90
2022-08-02T22:58:50.120Z,54.30
2022-08-02T22:58:58.898Z,62.20
2022-08-02T22:59:00.572Z,67.90
2022-08-02T23:00:29.060Z,96.00
2022-08-02T23:03:00.807Z,96.10
2022-08-02T23:05:32.592Z,96.10
2022-08-02T23:08:04.810Z,96.20
2022-08-02T23:10:37.187Z,96.20
2022-08-02T23:13:08.933Z,96.20
2022-08-02T23:16:01.821Z,96.30
2022-08-02T23:18:52.303Z,96.30
2022-08-02T23:21:46.171Z,96.40
2022-08-02T23:24:15.995Z,96.40
2022-08-02T23:26:47.697Z,96.50
2022-08-02T23:29:19.454Z,96.60
2022-08-02T23:31:51.227Z,96.70
2022-08-02T23:34:24.622Z,96.90
2022-08-02T23:36:56.388Z,96.90
2022-08-02T23:39:28.236Z,96.90
2022-08-02T23:42:00.017Z,97.00
2022-08-02T23:44:31.825Z,97.00
2022-08-02T23:47:03.665Z,97.10
2022-08-02T23:49:35.449Z,97.10
2022-08-02T23:52:07.307Z,97.00
2022-08-02T23:54:39.898Z,97.40
2022-08-02T23:57:20.362Z,96.90
2022-08-02T23:59:52.915Z,97.00
